Terminal Aerodrome Forecast
Issued by NWS

Home | Current Version | Previous Version | Graphics & Text | Print | Product List | Glossary On
Versions: 1 2 3 4 5 6 7 8 9 10 11 12 13 14 15 16 17 18 19 20 21 22 23 24 25 26 27 28 29 30 31 32 33 34 35 36 37 38 39 40 41 42 43
000
FTUS43 KGRB 071136
TAFRHI
TAF
KRHI 071136Z 0712/0812 20011G16KT P6SM OVC008
      TEMPO 0712/0713 5SM -SNPL OVC005
     FM071300 23012G17KT 6SM BR SCT010 OVC050
      TEMPO 0713/0717 5SM -RASNPL OVC010
     FM071800 25009KT P6SM -RASN SCT015 BKN025
     FM072300 26007KT P6SM -SN BKN015
     FM080300 27009KT 5SM -SN BKN012
     FM080700 30010G15KT 2SM -SN BKN009=

USA.gov is the U.S. government's official web portal to all federal, state and local government web resources and services.